Time;durP1;ratioP1;P1;durP2;ratioP2;P2;SDS_P1;SDS_P2;PMS_P1;PMS_P2;Temp;Humidity;BMP_temperature;BMP_pressure;BME280_temperature;BME280_humidity;BME280_pressure;Samples;Min_cycle;Max_cycle;Signal;HPM_P1;HPM_P2
2021/11/30 00:02:24;;;;;;;2.50;2.38;;;;;;;;;;5053513;28;20036;-85
2021/11/30 00:04:50;;;;;;;2.85;2.65;;;;;;;;;;5053695;28;20115;-85
2021/11/30 00:07:15;;;;;;;2.53;2.42;;;;;;;;;;5050397;28;20037;-86
2021/11/30 00:12:19;;;;;;;2.97;2.78;;;;;;;;;;5033571;28;20510;-85
2021/11/30 00:14:47;;;;;;;3.08;2.88;;;;;;;;;;5033318;28;20087;-83
2021/11/30 00:17:14;;;;;;;3.33;3.13;;;;;;;;;;5033866;28;20041;-83
2021/11/30 00:19:42;;;;;;;2.88;2.67;;;;;;;;;;5033672;28;20095;-84
2021/11/30 00:22:09;;;;;;;2.55;2.42;;;;;;;;;;5033711;28;20037;-83
2021/11/30 00:24:35;;;;;;;3.03;2.83;;;;;;;;;;5032338;28;20033;-83
2021/11/30 00:27:01;;;;;;;3.55;3.17;;;;;;;;;;5033392;28;20540;-83
2021/11/30 00:29:27;;;;;;;2.95;2.85;;;;;;;;;;5034154;28;20041;-83
2021/11/30 00:31:53;;;;;;;3.05;2.88;;;;;;;;;;5031783;28;20495;-82
2021/11/30 00:34:19;;;;;;;2.20;2.10;;;;;;;;;;5033256;28;20171;-84
2021/11/30 00:36:44;;;;;;;2.35;2.25;;;;;;;;;;5033221;28;20037;-84
2021/11/30 00:39:10;;;;;;;2.85;2.65;;;;;;;;;;5033221;28;20061;-84
2021/11/30 00:41:36;;;;;;;4.38;4.15;;;;;;;;;;5033057;28;20458;-83
2021/11/30 00:44:01;;;;;;;2.65;2.47;;;;;;;;;;5032881;28;20112;-83
2021/11/30 00:48:59;;;;;;;2.65;2.55;;;;;;;;;;5032669;28;20033;-84
2021/11/30 00:51:25;;;;;;;2.97;2.70;;;;;;;;;;5032470;28;20022;-83
2021/11/30 00:53:51;;;;;;;2.58;2.38;;;;;;;;;;5032310;28;20092;-84
2021/11/30 00:56:17;;;;;;;2.22;2.13;;;;;;;;;;5032418;28;20033;-83
2021/11/30 00:58:44;;;;;;;2.22;2.13;;;;;;;;;;5032207;28;20495;-83
2021/11/30 01:01:10;;;;;;;3.35;3.15;;;;;;;;;;5032046;28;20037;-84
2021/11/30 01:03:35;;;;;;;3.22;2.90;;;;;;;;;;5032657;28;20033;-84
2021/11/30 01:06:01;;;;;;;2.05;1.98;;;;;;;;;;5032461;28;20049;-85
2021/11/30 01:08:26;;;;;;;2.63;2.42;;;;;;;;;;5032524;28;20068;-85
2021/11/30 01:10:52;;;;;;;2.60;2.50;;;;;;;;;;5030755;28;20084;-84
2021/11/30 01:13:18;;;;;;;2.05;1.95;;;;;;;;;;5032626;28;20049;-84
2021/11/30 01:15:45;;;;;;;2.45;2.35;;;;;;;;;;5032357;28;20045;-84
2021/11/30 01:18:11;;;;;;;2.67;2.40;;;;;;;;;;5030897;28;20053;-86
2021/11/30 01:20:36;;;;;;;2.53;2.38;;;;;;;;;;5032842;28;20168;-85
2021/11/30 01:23:04;;;;;;;2.67;2.47;;;;;;;;;;5032080;28;20037;-86
2021/11/30 01:25:30;;;;;;;3.17;2.88;;;;;;;;;;5032400;28;20072;-85
2021/11/30 01:27:55;;;;;;;2.70;2.60;;;;;;;;;;5032160;28;20068;-85
2021/11/30 01:30:21;;;;;;;2.63;2.42;;;;;;;;;;5032790;28;20033;-86
2021/11/30 01:32:47;;;;;;;4.22;4.03;;;;;;;;;;5033088;28;20136;-86
2021/11/30 01:35:17;;;;;;;2.40;2.30;;;;;;;;;;5032175;28;20033;-86
2021/11/30 01:37:43;;;;;;;3.03;2.83;;;;;;;;;;5032122;28;20037;-85
2021/11/30 01:40:11;;;;;;;3.22;2.92;;;;;;;;;;5031984;28;20087;-86
2021/11/30 01:42:41;;;;;;;3.90;2.22;;;;;;;;;;5031691;28;20037;-86
2021/11/30 01:45:10;;;;;;;2.65;2.45;;;;;;;;;;5030486;28;20120;-86
2021/11/30 01:50:09;;;;;;;3.30;2.40;;;;;;;;;;5031647;28;20037;-85
2021/11/30 01:52:35;;;;;;;2.08;1.98;;;;;;;;;;5030800;28;20041;-85
2021/11/30 01:55:00;;;;;;;2.50;2.38;;;;;;;;;;5031865;28;20079;-85
2021/11/30 01:57:26;;;;;;;2.45;2.35;;;;;;;;;;5031958;28;20084;-84
2021/11/30 01:59:54;;;;;;;3.17;2.85;;;;;;;;;;5032282;28;20041;-84
2021/11/30 02:02:20;;;;;;;2.45;2.35;;;;;;;;;;5030788;28;20044;-84
2021/11/30 02:04:47;;;;;;;3.08;2.88;;;;;;;;;;5031085;28;20029;-83
2021/11/30 02:07:13;;;;;;;2.47;2.38;;;;;;;;;;5031214;28;20041;-84
2021/11/30 02:09:40;;;;;;;3.38;2.92;;;;;;;;;;5031590;28;20410;-83
2021/11/30 02:12:07;;;;;;;2.72;2.53;;;;;;;;;;5030843;28;20383;-83
2021/11/30 02:14:34;;;;;;;2.92;2.72;;;;;;;;;;5031176;28;20033;-83
2021/11/30 02:17:01;;;;;;;2.38;2.25;;;;;;;;;;5031259;28;20041;-84
2021/11/30 02:19:28;;;;;;;2.63;2.42;;;;;;;;;;5030965;28;20187;-82
2021/11/30 02:21:54;;;;;;;2.40;2.22;;;;;;;;;;5029962;28;20073;-84
2021/11/30 02:24:20;;;;;;;2.33;2.20;;;;;;;;;;5031303;28;20061;-84
2021/11/30 02:26:45;;;;;;;2.75;2.55;;;;;;;;;;5030955;28;20090;-84
2021/11/30 02:29:11;;;;;;;2.70;2.50;;;;;;;;;;5030867;28;20457;-83
2021/11/30 02:31:44;;;;;;;2.92;2.83;;;;;;;;;;5029922;28;20034;-84
2021/11/30 02:34:10;;;;;;;2.53;2.35;;;;;;;;;;5029732;28;20044;-85
2021/11/30 02:39:14;;;;;;;2.30;2.15;;;;;;;;;;5031117;28;20502;-84
2021/11/30 02:41:41;;;;;;;2.45;2.28;;;;;;;;;;5030574;28;20050;-84
2021/11/30 02:44:07;;;;;;;2.67;2.17;;;;;;;;;;5029728;28;20102;-83
2021/11/30 02:46:51;;;;;;;2.75;2.65;;;;;;;;;;5030692;28;20103;-84
2021/11/30 02:49:20;;;;;;;2.72;2.53;;;;;;;;;;5031092;28;20043;-85
2021/11/30 02:51:51;;;;;;;2.97;2.75;;;;;;;;;;5029443;28;20037;-85
2021/11/30 02:54:17;;;;;;;;;;;;;;;;;;5029778;28;20033;-86
2021/11/30 02:56:56;;;;;;;2.33;2.22;;;;;;;;;;5030552;28;19917;-86
2021/11/30 02:59:27;;;;;;;3.15;2.85;;;;;;;;;;5029192;28;20033;-84
2021/11/30 03:02:02;;;;;;;2.58;2.08;;;;;;;;;;5030676;28;20120;-85
2021/11/30 03:04:29;;;;;;;2.47;2.38;;;;;;;;;;5030873;28;20041;-85
2021/11/30 03:06:56;;;;;;;2.95;2.75;;;;;;;;;;5030636;28;20068;-85
2021/11/30 03:09:21;;;;;;;1.92;1.83;;;;;;;;;;5030456;28;20120;-85
2021/11/30 03:11:47;;;;;;;3.17;2.97;;;;;;;;;;5030450;28;20713;-84
2021/11/30 03:14:13;;;;;;;4.47;4.18;;;;;;;;;;5030620;28;20450;-85
2021/11/30 03:16:39;;;;;;;3.53;3.33;;;;;;;;;;5032600;28;20021;-85
2021/11/30 03:19:05;;;;;;;4.47;4.05;;;;;;;;;;5033102;28;20425;-84
2021/11/30 03:21:31;;;;;;;2.75;2.55;;;;;;;;;;5034024;28;20514;-84
2021/11/30 03:23:56;;;;;;;2.70;2.53;;;;;;;;;;5034258;28;20120;-84
2021/11/30 03:26:22;;;;;;;4.25;3.88;;;;;;;;;;5033687;28;20504;-83
2021/11/30 03:28:47;;;;;;;3.88;3.40;;;;;;;;;;5034239;28;20029;-84
2021/11/30 03:34:06;;;;;;;3.83;3.42;;;;;;;;;;5034196;28;20534;-82
2021/11/30 03:36:34;;;;;;;3.28;3.05;;;;;;;;;;5033999;28;20033;-85
2021/11/30 03:39:04;;;;;;;5.97;3.95;;;;;;;;;;5033873;28;20146;-84
2021/11/30 03:41:31;;;;;;;4.13;3.63;;;;;;;;;;5033654;28;20037;-84
2021/11/30 03:43:57;;;;;;;6.78;3.83;;;;;;;;;;5033617;28;20068;-84
2021/11/30 03:46:23;;;;;;;2.72;2.53;;;;;;;;;;5032677;28;20072;-85
2021/11/30 03:48:48;;;;;;;5.50;3.10;;;;;;;;;;5035389;28;20033;-84
2021/11/30 03:51:14;;;;;;;3.45;3.15;;;;;;;;;;5034902;28;20034;-84
2021/11/30 03:53:39;;;;;;;3.25;2.83;;;;;;;;;;5035073;28;20414;-84
2021/11/30 03:56:05;;;;;;;3.08;2.80;;;;;;;;;;5035388;28;20040;-84
2021/11/30 03:58:30;;;;;;;2.20;2.10;;;;;;;;;;5034881;28;20088;-85
2021/11/30 04:00:56;;;;;;;4.35;4.05;;;;;;;;;;5049918;28;20445;-85
2021/11/30 04:03:23;;;;;;;2.85;2.75;;;;;;;;;;5034631;28;20037;-85
2021/11/30 04:05:49;;;;;;;3.00;2.72;;;;;;;;;;5039529;28;20025;-83
2021/11/30 04:08:14;;;;;;;2.55;2.42;;;;;;;;;;5054872;28;20037;-83
2021/11/30 04:10:40;;;;;;;2.63;2.42;;;;;;;;;;5052804;28;20069;-84
2021/11/30 04:13:05;;;;;;;2.63;2.42;;;;;;;;;;5044822;28;20034;-83
2021/11/30 04:15:31;;;;;;;3.10;2.88;;;;;;;;;;5047210;28;20139;-84
2021/11/30 04:17:56;;;;;;;3.10;2.75;;;;;;;;;;5067473;28;20053;-83
2021/11/30 04:20:22;;;;;;;3.47;3.17;;;;;;;;;;5055346;28;20049;-84
2021/11/30 04:22:47;;;;;;;3.63;3.33;;;;;;;;;;5052942;28;20759;-85
2021/11/30 04:25:13;;;;;;;3.28;3.00;;;;;;;;;;5049456;28;20017;-85
2021/11/30 04:27:40;;;;;;;3.17;2.83;;;;;;;;;;5046503;28;20120;-84
2021/11/30 04:30:07;;;;;;;4.40;3.75;;;;;;;;;;5033212;28;20552;-85
2021/11/30 04:32:33;;;;;;;3.85;3.42;;;;;;;;;;5033068;28;20076;-84
2021/11/30 04:34:58;;;;;;;3.80;3.47;;;;;;;;;;5032757;28;20099;-84
2021/11/30 04:37:24;;;;;;;5.72;5.25;;;;;;;;;;5032568;28;20455;-83
2021/11/30 04:39:51;;;;;;;4.00;3.63;;;;;;;;;;5035546;28;20030;-84
2021/11/30 04:42:16;;;;;;;3.58;3.28;;;;;;;;;;5034653;28;20494;-82
2021/11/30 04:44:57;;;;;;;5.60;3.53;;;;;;;;;;5032443;28;20021;-84
2021/11/30 04:47:25;;;;;;;4.78;4.25;;;;;;;;;;5030965;28;20048;-85
2021/11/30 04:49:59;;;;;;;4.72;3.67;;;;;;;;;;5031554;28;20029;-85
2021/11/30 04:52:25;;;;;;;3.50;3.17;;;;;;;;;;5032442;28;20045;-84
2021/11/30 04:54:50;;;;;;;5.30;4.05;;;;;;;;;;5033014;28;20033;-84
2021/11/30 04:57:16;;;;;;;4.00;3.33;;;;;;;;;;5032568;28;20124;-84
2021/11/30 04:59:41;;;;;;;4.65;4.25;;;;;;;;;;5032040;28;20457;-84
2021/11/30 05:02:07;;;;;;;4.78;3.47;;;;;;;;;;5032432;28;20037;-85
2021/11/30 05:04:34;;;;;;;3.35;2.80;;;;;;;;;;5032743;28;20033;-85
2021/11/30 05:06:59;;;;;;;2.50;2.30;;;;;;;;;;5031988;28;20043;-84
2021/11/30 05:09:25;;;;;;;3.78;3.28;;;;;;;;;;5031918;28;20116;-86
2021/11/30 05:11:51;;;;;;;4.28;3.22;;;;;;;;;;5031741;28;20033;-84
2021/11/30 05:14:16;;;;;;;3.28;3.03;;;;;;;;;;5031910;28;20079;-86
2021/11/30 05:16:42;;;;;;;3.17;2.92;;;;;;;;;;5031442;28;20483;-85
2021/11/30 05:19:07;;;;;;;7.90;3.47;;;;;;;;;;5032281;28;20422;-84
2021/11/30 05:21:33;;;;;;;3.53;3.22;;;;;;;;;;5031657;28;20120;-85
2021/11/30 05:24:04;;;;;;;4.85;4.45;;;;;;;;;;5031588;28;20410;-84
2021/11/30 05:26:30;;;;;;;3.25;2.63;;;;;;;;;;5031271;28;20565;-84
2021/11/30 05:28:56;;;;;;;3.25;2.90;;;;;;;;;;5031405;28;20129;-84
2021/11/30 05:31:22;;;;;;;2.25;2.08;;;;;;;;;;5032645;28;20029;-87
2021/11/30 05:33:48;;;;;;;3.53;3.20;;;;;;;;;;5039552;28;20033;-88
2021/11/30 05:36:16;;;;;;;2.67;2.47;;;;;;;;;;5035800;28;20040;-87
2021/11/30 05:38:42;;;;;;;4.43;2.75;;;;;;;;;;5039850;28;20092;-86
2021/11/30 05:41:07;;;;;;;2.83;2.63;;;;;;;;;;5030947;28;20044;-87
2021/11/30 05:43:33;;;;;;;3.00;2.63;;;;;;;;;;5031448;28;20033;-84
2021/11/30 05:45:59;;;;;;;2.92;2.72;;;;;;;;;;5031193;28;20044;-85
2021/11/30 05:48:24;;;;;;;4.72;4.32;;;;;;;;;;5031483;28;20444;-86
2021/11/30 05:50:50;;;;;;;4.32;4.03;;;;;;;;;;5031039;28;20272;-85
2021/11/30 05:53:16;;;;;;;3.30;3.08;;;;;;;;;;5031607;28;20025;-86
2021/11/30 05:55:50;;;;;;;2.75;2.55;;;;;;;;;;5031449;28;20033;-86
2021/11/30 05:58:16;;;;;;;3.40;3.10;;;;;;;;;;5031280;28;20482;-86
2021/11/30 06:00:41;;;;;;;2.40;2.20;;;;;;;;;;5029840;28;20044;-87
2021/11/30 06:03:20;;;;;;;4.30;3.90;;;;;;;;;;5031993;28;20441;-85
2021/11/30 06:05:46;;;;;;;2.97;2.70;;;;;;;;;;5030351;28;20498;-86
2021/11/30 06:08:12;;;;;;;3.25;3.00;;;;;;;;;;5031440;28;20491;-89
2021/11/30 06:10:37;;;;;;;3.40;2.72;;;;;;;;;;5031300;28;20041;-87
2021/11/30 06:13:03;;;;;;;3.00;2.80;;;;;;;;;;5030831;28;20042;-86
2021/11/30 06:15:28;;;;;;;4.47;2.67;;;;;;;;;;5031171;28;20116;-87
2021/11/30 06:17:53;;;;;;;2.67;2.47;;;;;;;;;;5031005;28;20069;-87
2021/11/30 06:20:21;;;;;;;2.85;2.65;;;;;;;;;;5029749;28;20037;-86
2021/11/30 06:22:47;;;;;;;3.42;2.80;;;;;;;;;;5031035;28;20034;-85
2021/11/30 06:25:12;;;;;;;2.95;2.72;;;;;;;;;;5031891;28;20034;-86
2021/11/30 06:27:38;;;;;;;4.22;2.65;;;;;;;;;;5031945;28;20060;-86
2021/11/30 06:30:05;;;;;;;4.10;2.55;;;;;;;;;;5032896;28;20049;-85
2021/11/30 06:32:31;;;;;;;3.92;3.28;;;;;;;;;;5032297;28;20033;-85
2021/11/30 06:34:56;;;;;;;2.45;2.15;;;;;;;;;;5031375;28;20533;-85
2021/11/30 06:37:22;;;;;;;2.63;2.38;;;;;;;;;;5031156;28;20037;-86
2021/11/30 06:39:48;;;;;;;2.75;2.55;;;;;;;;;;5030866;28;20038;-86
2021/11/30 06:42:13;;;;;;;2.58;2.47;;;;;;;;;;5030589;28;20033;-86
2021/11/30 06:44:39;;;;;;;2.55;2.35;;;;;;;;;;5030956;28;20104;-85
2021/11/30 06:47:05;;;;;;;4.90;4.53;;;;;;;;;;5030723;28;20490;-84
2021/11/30 06:49:32;;;;;;;2.63;2.45;;;;;;;;;;5029595;28;20029;-86
2021/11/30 06:51:58;;;;;;;2.83;2.47;;;;;;;;;;5032685;28;20045;-84
2021/11/30 06:54:23;;;;;;;2.95;2.75;;;;;;;;;;5034505;28;20033;-85
2021/11/30 06:56:49;;;;;;;2.80;2.65;;;;;;;;;;5034031;28;20116;-85
2021/11/30 06:59:15;;;;;;;4.53;3.03;;;;;;;;;;5034665;28;20085;-86
2021/11/30 07:01:43;;;;;;;3.17;2.97;;;;;;;;;;5034433;28;20087;-85
2021/11/30 07:04:09;;;;;;;2.75;2.55;;;;;;;;;;5034460;28;20107;-89
2021/11/30 07:06:42;;;;;;;2.47;2.28;;;;;;;;;;5034960;28;20558;-88
2021/11/30 07:14:12;;;;;;;2.55;2.35;;;;;;;;;;5034424;28;20033;-90
2021/11/30 07:16:38;;;;;;;2.88;2.67;;;;;;;;;;5034088;28;20087;-86
2021/11/30 07:19:04;;;;;;;3.30;3.03;;;;;;;;;;5033968;28;20057;-88
2021/11/30 07:21:30;;;;;;;8.23;3.05;;;;;;;;;;5034032;28;20052;-90
2021/11/30 07:23:56;;;;;;;3.58;3.20;;;;;;;;;;5033816;28;20033;-88
2021/11/30 07:26:22;;;;;;;2.80;2.60;;;;;;;;;;5033687;28;20025;-90
2021/11/30 07:28:48;;;;;;;2.72;2.42;;;;;;;;;;5033273;28;20388;-88
2021/11/30 07:31:15;;;;;;;2.42;2.22;;;;;;;;;;5034042;28;20036;-91
2021/11/30 07:33:46;;;;;;;3.03;2.83;;;;;;;;;;5033474;28;20128;-89
2021/11/30 07:36:14;;;;;;;3.10;2.80;;;;;;;;;;5032551;28;20037;-89
2021/11/30 07:38:42;;;;;;;2.83;2.63;;;;;;;;;;5033401;28;20402;-87
2021/11/30 07:41:09;;;;;;;3.28;2.97;;;;;;;;;;5032143;28;20392;-89
2021/11/30 07:43:35;;;;;;;2.70;2.50;;;;;;;;;;5032329;28;20090;-89
2021/11/30 07:46:01;;;;;;;3.03;2.72;;;;;;;;;;5032644;28;20116;-88
2021/11/30 07:48:27;;;;;;;2.85;2.65;;;;;;;;;;5033664;28;20129;-89
2021/11/30 07:50:55;;;;;;;3.80;3.20;;;;;;;;;;5033422;28;20033;-88
2021/11/30 07:53:21;;;;;;;6.15;3.42;;;;;;;;;;5032560;28;20137;-85
2021/11/30 07:55:47;;;;;;;3.60;3.15;;;;;;;;;;5033534;28;20036;-89
2021/11/30 07:58:12;;;;;;;4.25;3.95;;;;;;;;;;5032067;28;20445;-89
2021/11/30 08:00:38;;;;;;;4.47;3.17;;;;;;;;;;5033092;28;20529;-88
2021/11/30 08:03:04;;;;;;;3.20;2.28;;;;;;;;;;5032091;28;20576;-88
2021/11/30 08:05:30;;;;;;;4.25;3.15;;;;;;;;;;5033048;28;20033;-87
2021/11/30 08:07:56;;;;;;;4.28;3.90;;;;;;;;;;5033347;28;20407;-87
2021/11/30 08:10:25;;;;;;;3.08;2.80;;;;;;;;;;5033165;28;20120;-87
2021/11/30 08:12:51;;;;;;;2.58;2.38;;;;;;;;;;5033114;28;20038;-88
2021/11/30 08:15:16;;;;;;;2.42;2.33;;;;;;;;;;5033392;28;20039;-87
2021/11/30 08:17:42;;;;;;;2.42;2.33;;;;;;;;;;5036112;28;20037;-87
2021/11/30 08:20:09;;;;;;;2.17;2.08;;;;;;;;;;5040771;28;20539;-89
2021/11/30 08:22:36;;;;;;;3.97;2.92;;;;;;;;;;5033668;28;20092;-88
2021/11/30 08:25:04;;;;;;;2.30;2.08;;;;;;;;;;5033118;28;20175;-89
2021/11/30 08:27:30;;;;;;;2.70;2.50;;;;;;;;;;5042736;28;20017;-88
2021/11/30 08:29:56;;;;;;;2.28;2.05;;;;;;;;;;5051975;28;20383;-88
2021/11/30 08:32:22;;;;;;;3.00;2.80;;;;;;;;;;5054530;28;20028;-88
2021/11/30 08:34:51;;;;;;;4.07;3.75;;;;;;;;;;5053934;28;20033;-89
2021/11/30 08:37:17;;;;;;;4.55;2.83;;;;;;;;;;5054822;28;20029;-88
2021/11/30 08:39:43;;;;;;;3.17;2.72;;;;;;;;;;5054291;28;20516;-87
2021/11/30 08:42:11;;;;;;;4.13;3.83;;;;;;;;;;5051836;28;20495;-88
2021/11/30 08:44:37;;;;;;;2.80;2.60;;;;;;;;;;5053827;28;20086;-88
2021/11/30 08:47:04;;;;;;;2.63;2.42;;;;;;;;;;5054140;28;20033;-90
2021/11/30 08:49:30;;;;;;;2.42;2.22;;;;;;;;;;5053565;28;20071;-86
2021/11/30 08:51:57;;;;;;;2.53;2.30;;;;;;;;;;5052858;28;20040;-87
2021/11/30 08:54:26;;;;;;;2.72;2.53;;;;;;;;;;5051973;28;20037;-87
2021/11/30 08:56:52;;;;;;;1.95;1.85;;;;;;;;;;5052373;28;20033;-87
2021/11/30 08:59:18;;;;;;;2.28;2.15;;;;;;;;;;5052773;28;20547;-86
2021/11/30 09:01:44;;;;;;;2.78;2.58;;;;;;;;;;5051441;28;20420;-86
2021/11/30 09:04:09;;;;;;;3.00;2.90;;;;;;;;;;5053883;28;20461;-86
2021/11/30 09:06:35;;;;;;;3.05;2.85;;;;;;;;;;5056573;28;20041;-87
2021/11/30 09:09:02;;;;;;;3.88;3.58;;;;;;;;;;5058036;28;20036;-88
2021/11/30 09:11:28;;;;;;;2.40;2.20;;;;;;;;;;5055865;28;20032;-87
2021/11/30 09:13:53;;;;;;;2.45;2.33;;;;;;;;;;5056644;28;20139;-86
2021/11/30 09:16:21;;;;;;;2.67;2.47;;;;;;;;;;5057478;28;20032;-86
2021/11/30 11:30:09;;;;;;;2.45;2.28;;;;;;;;;;5157942;23;20054;-70
2021/11/30 11:32:34;;;;;;;2.60;2.40;;;;;;;;;;4945693;28;20520;-71
2021/11/30 11:35:01;;;;;;;2.40;2.20;;;;;;;;;;4949856;28;20032;-71
2021/11/30 11:37:27;;;;;;;2.45;2.25;;;;;;;;;;4952745;28;20050;-73
2021/11/30 11:39:53;;;;;;;2.33;2.13;;;;;;;;;;4973553;28;20135;-71
2021/11/30 11:42:21;;;;;;;2.53;2.20;;;;;;;;;;4973607;28;20027;-71
2021/11/30 11:44:47;;;;;;;2.28;2.08;;;;;;;;;;4972970;28;20042;-72
2021/11/30 11:47:22;;;;;;;2.22;2.03;;;;;;;;;;4953293;28;20034;-70
2021/11/30 11:49:50;;;;;;;2.97;1.98;;;;;;;;;;4953082;29;20593;-71
2021/11/30 11:52:26;;;;;;;3.67;3.38;;;;;;;;;;4952439;29;20484;-71
2021/11/30 11:55:12;;;;;;;2.47;2.28;;;;;;;;;;4953526;28;20454;-71
2021/11/30 11:57:38;;;;;;;2.05;1.95;;;;;;;;;;4953566;29;20038;-70
2021/11/30 12:00:18;;;;;;;2.28;2.15;;;;;;;;;;4953323;29;20039;-71
2021/11/30 12:03:05;;;;;;;2.35;2.15;;;;;;;;;;4936307;29;20450;-72
2021/11/30 12:05:43;;;;;;;2.33;2.13;;;;;;;;;;4936453;29;20035;-70
2021/11/30 12:08:32;;;;;;;2.03;1.92;;;;;;;;;;4940320;28;20039;-72
2021/11/30 12:10:58;;;;;;;2.00;1.90;;;;;;;;;;4935340;29;20032;-72
2021/11/30 12:13:26;;;;;;;2.15;2.03;;;;;;;;;;4944141;29;20059;-70
2021/11/30 12:16:09;;;;;;;2.28;2.17;;;;;;;;;;4953827;28;20485;-71
2021/11/30 12:18:42;;;;;;;2.10;2.00;;;;;;;;;;4953027;29;20059;-69
2021/11/30 12:21:21;;;;;;;2.08;1.98;;;;;;;;;;4952423;29;20397;-71
2021/11/30 12:23:52;;;;;;;3.55;3.22;;;;;;;;;;4955669;28;20411;-69
2021/11/30 12:26:31;;;;;;;1.95;1.85;;;;;;;;;;4972578;28;20027;-72
2021/11/30 12:28:58;;;;;;;2.50;2.13;;;;;;;;;;4971670;28;21165;-71
2021/11/30 12:31:31;;;;;;;2.53;2.33;;;;;;;;;;4973848;28;20489;-71
2021/11/30 12:33:57;;;;;;;3.05;2.40;;;;;;;;;;4967771;28;20122;-71
2021/11/30 12:36:33;;;;;;;1.95;1.85;;;;;;;;;;4953581;29;20122;-71
2021/11/30 12:39:01;;;;;;;2.63;2.42;;;;;;;;;;4954709;29;20058;-71
2021/11/30 12:41:28;;;;;;;2.25;2.08;;;;;;;;;;4954831;29;20023;-72
2021/11/30 12:43:57;;;;;;;2.90;1.92;;;;;;;;;;4937153;29;20046;-72
2021/11/30 12:46:40;;;;;;;2.22;2.13;;;;;;;;;;4954705;28;20043;-73
2021/11/30 12:49:24;;;;;;;1.85;1.75;;;;;;;;;;4953885;28;20221;-71
2021/11/30 12:52:06;;;;;;;2.00;1.90;;;;;;;;;;4952918;29;20498;-70
2021/11/30 12:54:35;;;;;;;2.67;2.47;;;;;;;;;;4954497;28;20046;-73
2021/11/30 12:57:01;;;;;;;2.28;2.08;;;;;;;;;;4954105;29;20129;-72
2021/11/30 12:59:41;;;;;;;5.38;4.97;;;;;;;;;;4954106;29;20493;-72
2021/11/30 13:02:27;;;;;;;2.55;2.38;;;;;;;;;;4954202;29;20050;-73
2021/11/30 13:05:08;;;;;;;2.80;2.60;;;;;;;;;;4954311;29;20043;-70
2021/11/30 13:07:36;;;;;;;2.55;2.35;;;;;;;;;;4954459;29;20064;-70
2021/11/30 13:10:05;;;;;;;2.30;2.20;;;;;;;;;;4954432;29;20031;-70
2021/11/30 13:12:32;;;;;;;2.60;2.38;;;;;;;;;;4953919;29;20036;-71
2021/11/30 13:15:02;;;;;;;2.40;2.20;;;;;;;;;;4954270;29;20046;-71
2021/11/30 13:17:35;;;;;;;2.50;2.30;;;;;;;;;;4936928;29;20035;-70
2021/11/30 13:20:04;;;;;;;2.60;2.38;;;;;;;;;;4953864;29;20379;-70
2021/11/30 13:22:29;;;;;;;2.67;2.22;;;;;;;;;;4954479;29;20039;-71
2021/11/30 13:24:57;;;;;;;2.10;2.00;;;;;;;;;;4965806;28;20046;-69
2021/11/30 13:27:26;;;;;;;2.30;2.20;;;;;;;;;;4972700;28;20038;-70
2021/11/30 13:30:12;;;;;;;2.72;2.53;;;;;;;;;;4972494;28;20405;-71
2021/11/30 13:32:39;;;;;;;2.47;2.30;;;;;;;;;;4971525;28;20037;-72
2021/11/30 13:35:05;;;;;;;2.22;2.13;;;;;;;;;;4971225;28;20389;-72
2021/11/30 13:37:31;;;;;;;4.57;2.45;;;;;;;;;;4970789;28;20037;-70
2021/11/30 13:39:56;;;;;;;2.47;2.33;;;;;;;;;;4971135;28;20034;-71
2021/11/30 13:42:22;;;;;;;2.63;2.42;;;;;;;;;;4971083;28;20034;-71
2021/11/30 13:44:51;;;;;;;2.58;2.33;;;;;;;;;;4971344;28;20039;-72
2021/11/30 13:47:18;;;;;;;2.05;1.92;;;;;;;;;;4970706;28;20034;-70
2021/11/30 13:49:46;;;;;;;2.80;2.47;;;;;;;;;;4970525;28;20035;-69
2021/11/30 13:52:23;;;;;;;4.22;2.42;;;;;;;;;;4949537;28;20034;-70
2021/11/30 13:54:56;;;;;;;2.42;2.22;;;;;;;;;;4952053;29;20031;-71
2021/11/30 13:57:25;;;;;;;2.60;2.28;;;;;;;;;;4951528;29;20041;-69
2021/11/30 13:59:56;;;;;;;2.53;2.33;;;;;;;;;;4948416;28;20035;-70
2021/11/30 14:02:42;;;;;;;2.60;2.40;;;;;;;;;;4930999;29;20032;-71
2021/11/30 14:05:09;;;;;;;2.30;2.20;;;;;;;;;;4931915;29;20039;-71
2021/11/30 14:07:37;;;;;;;2.25;2.05;;;;;;;;;;4932600;29;20071;-70
2021/11/30 14:10:15;;;;;;;4.13;2.25;;;;;;;;;;4932778;29;20031;-68
2021/11/30 14:12:41;;;;;;;3.65;3.45;;;;;;;;;;4931651;29;20767;-70
2021/11/30 14:15:08;;;;;;;2.40;2.20;;;;;;;;;;4932348;29;20147;-72
2021/11/30 14:17:37;;;;;;;3.90;3.70;;;;;;;;;;4932521;29;20404;-72
2021/11/30 14:20:14;;;;;;;3.15;2.20;;;;;;;;;;4932405;29;20034;-72
2021/11/30 14:22:41;;;;;;;2.22;2.10;;;;;;;;;;4932602;29;20510;-71
2021/11/30 14:25:13;;;;;;;2.42;2.03;;;;;;;;;;4958920;28;20055;-72
2021/11/30 14:27:47;;;;;;;2.40;2.20;;;;;;;;;;4970355;28;20101;-71
2021/11/30 14:30:31;;;;;;;1.98;1.80;;;;;;;;;;4971005;28;20763;-70
2021/11/30 14:33:13;;;;;;;3.03;2.15;;;;;;;;;;4971669;28;20121;-70
2021/11/30 14:35:50;;;;;;;2.38;2.10;;;;;;;;;;4971810;28;20046;-71
2021/11/30 14:38:28;;;;;;;2.38;2.22;;;;;;;;;;4971607;28;20121;-68
2021/11/30 14:41:05;;;;;;;2.38;2.05;;;;;;;;;;4972068;28;20077;-70
2021/11/30 14:43:31;;;;;;;4.30;2.47;;;;;;;;;;4972130;28;20528;-70
2021/11/30 14:45:57;;;;;;;2.22;2.13;;;;;;;;;;4972330;28;20034;-71
2021/11/30 14:48:23;;;;;;;2.58;2.38;;;;;;;;;;4972170;28;20586;-70
2021/11/30 14:50:54;;;;;;;2.47;2.38;;;;;;;;;;4971385;28;20049;-70
2021/11/30 14:53:22;;;;;;;2.63;2.42;;;;;;;;;;4972198;28;20477;-69
2021/11/30 14:55:54;;;;;;;2.28;2.17;;;;;;;;;;4972762;28;20485;-69
2021/11/30 14:58:22;;;;;;;2.75;2.55;;;;;;;;;;4971177;28;20038;-70
2021/11/30 15:00:53;;;;;;;2.65;2.50;;;;;;;;;;4971478;28;20038;-70
2021/11/30 15:03:43;;;;;;;2.95;2.55;;;;;;;;;;4971867;28;20117;-71
2021/11/30 15:06:10;;;;;;;2.20;2.10;;;;;;;;;;4960528;28;20039;-71
2021/11/30 15:08:37;;;;;;;2.90;2.70;;;;;;;;;;4971574;28;20069;-70
2021/11/30 15:11:12;;;;;;;2.22;2.13;;;;;;;;;;4969768;28;20066;-71
2021/11/30 15:13:40;;;;;;;2.55;2.40;;;;;;;;;;4975231;28;20415;-69
2021/11/30 15:16:20;;;;;;;2.67;2.47;;;;;;;;;;4975779;28;20054;-70
2021/11/30 15:19:02;;;;;;;2.53;2.33;;;;;;;;;;4974687;28;20062;-71
2021/11/30 15:21:28;;;;;;;2.67;2.38;;;;;;;;;;4975213;28;20085;-71
2021/11/30 15:23:53;;;;;;;2.80;2.60;;;;;;;;;;4971664;28;20565;-72
2021/11/30 15:26:26;;;;;;;2.17;2.00;;;;;;;;;;4955437;29;20035;-72
2021/11/30 15:28:51;;;;;;;2.20;1.98;;;;;;;;;;4956191;29;20046;-73
2021/11/30 15:31:17;;;;;;;2.72;2.47;;;;;;;;;;4954193;29;20035;-71
2021/11/30 15:33:42;;;;;;;2.88;2.67;;;;;;;;;;4953839;28;20031;-73
2021/11/30 15:36:08;;;;;;;2.53;2.33;;;;;;;;;;4954180;29;20094;-70
2021/11/30 15:38:33;;;;;;;2.85;2.60;;;;;;;;;;4953987;29;20126;-70
2021/11/30 15:40:59;;;;;;;2.65;2.45;;;;;;;;;;4953098;29;20039;-72
2021/11/30 15:43:24;;;;;;;2.17;2.05;;;;;;;;;;4953744;29;20035;-69
2021/11/30 15:45:50;;;;;;;3.03;2.75;;;;;;;;;;4952499;29;20070;-70
2021/11/30 15:48:18;;;;;;;2.72;2.53;;;;;;;;;;4952822;29;20031;-71
2021/11/30 15:50:43;;;;;;;2.17;2.08;;;;;;;;;;4953901;29;20046;-71
2021/11/30 15:53:09;;;;;;;4.38;4.07;;;;;;;;;;4954398;29;20413;-72
2021/11/30 15:57:22;;;;;;;4.07;3.88;;;;;;;;;;4953687;29;20449;-71
2021/11/30 15:58:20;;;;;;;2.28;2.17;;;;;;;;;;4953979;29;20042;-72
2021/11/30 16:00:45;;;;;;;2.50;2.40;;;;;;;;;;4953760;29;20031;-73
2021/11/30 16:03:11;;;;;;;2.28;2.17;;;;;;;;;;4951932;29;20034;-72
2021/11/30 16:05:36;;;;;;;2.47;2.22;;;;;;;;;;4953889;29;20039;-73
2021/11/30 16:08:02;;;;;;;2.80;2.55;;;;;;;;;;4953366;29;20154;-70
2021/11/30 16:10:27;;;;;;;2.47;2.28;;;;;;;;;;4953235;29;20118;-72
2021/11/30 16:12:53;;;;;;;2.55;2.45;;;;;;;;;;4936512;29;20055;-71
2021/11/30 16:15:18;;;;;;;2.67;2.47;;;;;;;;;;4953753;29;20050;-71
2021/11/30 16:17:44;;;;;;;2.78;2.58;;;;;;;;;;4953213;28;20047;-71
2021/11/30 16:20:09;;;;;;;3.63;3.33;;;;;;;;;;4953410;29;20480;-70
2021/11/30 16:22:35;;;;;;;2.72;2.53;;;;;;;;;;4953404;29;20493;-72
2021/11/30 16:25:00;;;;;;;2.30;2.20;;;;;;;;;;4964397;28;20078;-72
2021/11/30 16:27:26;;;;;;;2.47;2.28;;;;;;;;;;4972562;28;20108;-72
2021/11/30 16:29:52;;;;;;;2.25;2.15;;;;;;;;;;4971813;28;20058;-72
2021/11/30 16:32:18;;;;;;;2.40;2.20;;;;;;;;;;4971721;28;20085;-70
2021/11/30 16:34:44;;;;;;;2.38;2.28;;;;;;;;;;4971987;28;20497;-71
2021/11/30 16:37:10;;;;;;;2.70;2.53;;;;;;;;;;4972224;28;20133;-71
2021/11/30 16:39:36;;;;;;;2.50;2.40;;;;;;;;;;4971942;28;20102;-72
2021/11/30 16:42:02;;;;;;;2.20;2.10;;;;;;;;;;4972239;28;20038;-71
2021/11/30 16:44:27;;;;;;;3.40;2.63;;;;;;;;;;4954548;28;20122;-71
2021/11/30 16:46:53;;;;;;;2.70;2.47;;;;;;;;;;4971725;28;20056;-70
2021/11/30 16:49:19;;;;;;;2.60;2.30;;;;;;;;;;4954526;28;20027;-73
2021/11/30 16:51:45;;;;;;;2.35;2.05;;;;;;;;;;4972241;28;20489;-71
2021/11/30 16:54:12;;;;;;;3.42;3.22;;;;;;;;;;4971891;28;20868;-71
2021/11/30 16:56:42;;;;;;;2.15;1.98;;;;;;;;;;4971126;28;20026;-70
2021/11/30 16:59:09;;;;;;;2.00;1.90;;;;;;;;;;4972003;28;20414;-72
2021/11/30 17:01:35;;;;;;;2.38;2.17;;;;;;;;;;4970255;28;20096;-72
2021/11/30 17:04:00;;;;;;;3.25;2.95;;;;;;;;;;4971591;28;20050;-71
2021/11/30 17:06:29;;;;;;;2.55;2.38;;;;;;;;;;4972417;28;20030;-72
2021/11/30 17:08:55;;;;;;;2.35;2.25;;;;;;;;;;4971960;28;20038;-71
2021/11/30 17:11:21;;;;;;;2.65;2.45;;;;;;;;;;4971359;28;20042;-72
2021/11/30 17:13:47;;;;;;;2.58;2.35;;;;;;;;;;4954956;28;20042;-72
2021/11/30 17:16:17;;;;;;;2.88;2.67;;;;;;;;;;4971849;28;20045;-71
2021/11/30 17:18:43;;;;;;;2.45;2.35;;;;;;;;;;4970816;28;20058;-71